Urb Garden Hls Chalets, Puerto Rico
Current Conditions -  °F | °C
As of 3:56 PM on Friday 19 Dec 2014 (Local Time) from TJSJ Reporting Station
Scattered Clouds Scattered Clouds  
Wind Chill: 81°   Ceiling: Unl
Heat Index: 84°   Visibility: 10mi
Dew Point: 68°   Wind: 13mph
Humidity: 65%   Direction: 70°ENE
Pressure: 29.95"   Gusts: NA
Location:  18.3882°N, 66.1144°W
Report Text: TJSJ 191956Z 07011KT 10SM FEW035 SCT075 27/20 A2995 RMK AO2 SLP140 SHRA DSNT SW T02720200
Loading
Personal Weather Stations






























Interactive Weather Map New forecast layout! Learn more

10-Day Weather Forecast

Advertisements
Track Severe Weather on mobile